CheckWX is a tool to help pilots better visualize weather data.  It is not intended as a substitute for an official pre-flight weather briefing.

20:22:37 UTC

KHNR METAR
Harlan Municipal Airport
Harlan, Iowa, USA
Current

28 mins ago

KHNR 121955Z AUTO 00000KT 10SM SCT043 SCT050 27/14 A2999 RMK AO2
Observed
Jul-12 @ 19:55 UTC
Visibility
10 SM
Flight Rules
VFR
Cloud Levels
  • Scattered at 4,300' AGL
  • Scattered at 5,000' AGL
Temperature
27°C / 81°F
Dewpoint
14°C / 57°F
Humidity
45%
Altimeter
29.99" Hg
Pressure
1015.62 hPa
Previous

48 mins ago

KHNR 121935Z AUTO VRB05KT 10SM CLR 28/13 A2998 RMK AO2
Observed
Jul-12 @ 19:35 UTC
Wind
  • Variable at 5 KTS
Visibility
10 SM
Flight Rules
VFR
Cloud Levels
  • Clear skies
Temperature
28°C / 82°F
Dewpoint
13°C / 55°F
Humidity
40%
Altimeter
29.98" Hg
Pressure
1015.22 hPa
Previous

1 hour ago

KHNR 121915Z AUTO 03006KT 10SM CLR 28/14 A2998 RMK AO2
Observed
Jul-12 @ 19:15 UTC
Wind
  • 030° at 6 KTS
Visibility
10 SM
Flight Rules
VFR
Cloud Levels
  • Clear skies
Temperature
28°C / 82°F
Dewpoint
14°C / 57°F
Humidity
42%
Altimeter
29.98" Hg
Pressure
1015.22 hPa